ESGG/GOT METAR and TAF weather

Enter ICAO airport designator
Station Type Date Time Source
ESGG METAR 2018/04/27 00:50 UTC NOAA

ESGG 270050Z 23008KT 9999 SCT025 OVC037 05/03 Q1006


Station Type Date Time Source
ESGG Decoded METAR 2018/04/27 00:50 UTC NOAA

Goteborg / Landvetter, Sweden (ESGG) 57-40N 012-18E
Apr 26, 2018 - 08:50 PM EDT / 2018.04.27 0050 UTC
Wind: from the SW (230 degrees) at 9 MPH (8 KT):0
Visibility: greater than 7 mile(s):0
Sky conditions: overcast
Temperature: 41 F (5 C)
Dew Point: 37 F (3 C)
Relative Humidity: 86%
Pressure (altimeter): 29.71 in. Hg (1006 hPa)
ob: ESGG 270050Z 23008KT 9999 SCT025 OVC037 05/03 Q1006
cycle: 1

Station Type Date Time Source
ESGG TAF 2018/04/26 18:35 UTC NOAA

TAF ESGG 261730Z 2618/2718 22008KT 9999 SCT012 BKN040 PROB40 2618/2701 BKN012 PROB40 2701/2709 BKN008 PROB40 2709/2712 BKN012


Example: see airport list